Time;durP1;ratioP1;P1;durP2;ratioP2;P2;SDS_P1;SDS_P2;PMS_P1;PMS_P2;Temp;Humidity;BMP_temperature;BMP_pressure;BME280_temperature;BME280_humidity;BME280_pressure;Samples;Min_cycle;Max_cycle;Signal;HPM_P1;HPM_P2
2023/01/06 00:01:10;;;;;;;8.05;2.42;;;;;;;10.09;100.00;101491.69;5033849;28;20053;-54
2023/01/06 00:03:36;;;;;;;10.97;2.63;;;;;;;10.05;100.00;101483.16;5032479;28;20046;-54
2023/01/06 00:06:05;;;;;;;14.80;3.00;;;;;;;10.09;100.00;101491.69;5033978;28;20125;-54
2023/01/06 00:08:33;;;;;;;18.13;3.10;;;;;;;10.03;100.00;101482.44;5032968;28;20052;-53
2023/01/06 00:11:12;;;;;;;9.38;3.00;;;;;;;10.05;100.00;101483.16;5034075;28;20104;-53
2023/01/06 00:13:40;;;;;;;10.10;2.63;;;;;;;10.13;100.00;101482.47;5033415;28;20041;-55
2023/01/06 00:16:10;;;;;;;12.00;2.78;;;;;;;10.12;100.00;101486.13;5026743;28;20045;-54
2023/01/06 00:18:38;;;;;;;9.70;2.40;;;;;;;10.14;100.00;101484.16;5032006;28;20053;-54
2023/01/06 00:21:05;;;;;;;9.13;2.78;;;;;;;10.08;100.00;101476.75;5033632;28;20358;-54
2023/01/06 00:23:33;;;;;;;8.80;2.40;;;;;;;10.16;100.00;101475.09;5033434;28;20080;-53
2023/01/06 00:25:59;;;;;;;8.98;2.28;;;;;;;10.11;100.00;101479.13;5033330;28;20080;-55
2023/01/06 00:28:26;;;;;;;5.43;2.30;;;;;;;10.08;100.00;101477.59;5033051;28;20050;-55
2023/01/06 00:30:53;;;;;;;11.27;2.72;;;;;;;10.16;100.00;101472.44;5033533;28;20054;-55
2023/01/06 00:33:22;;;;;;;7.50;2.35;;;;;;;10.16;100.00;101476.91;5033421;28;20041;-54
2023/01/06 00:35:49;;;;;;;10.23;2.50;;;;;;;10.17;100.00;101475.97;5033453;28;20670;-55
2023/01/06 00:38:16;;;;;;;9.02;2.10;;;;;;;10.15;100.00;101461.97;5033388;28;20410;-54
2023/01/06 00:40:42;;;;;;;8.45;2.20;;;;;;;10.15;100.00;101467.28;5033622;28;20045;-54
2023/01/06 00:43:09;;;;;;;8.68;2.15;;;;;;;10.23;100.00;101461.31;5033184;28;20037;-53
2023/01/06 00:45:36;;;;;;;12.45;2.50;;;;;;;10.16;100.00;101461.00;5033207;28;20045;-54
2023/01/06 00:48:02;;;;;;;11.88;2.30;;;;;;;10.17;100.00;101455.56;5033094;28;20046;-54
2023/01/06 00:50:29;;;;;;;15.57;2.63;;;;;;;10.16;100.00;101453.06;5033301;28;20383;-53
2023/01/06 00:52:56;;;;;;;10.73;2.08;;;;;;;10.21;100.00;101450.00;5032549;28;20069;-54
2023/01/06 00:55:23;;;;;;;10.07;2.60;;;;;;;10.13;100.00;101451.53;5033421;28;20045;-55
2023/01/06 00:57:51;;;;;;;8.32;2.67;;;;;;;10.13;100.00;101446.22;5033266;28;20053;-54
2023/01/06 01:00:18;;;;;;;8.05;2.25;;;;;;;10.14;100.00;101445.22;5033007;28;20411;-55
2023/01/06 01:02:45;;;;;;;9.18;2.40;;;;;;;10.17;100.00;101444.97;5033099;28;20045;-54
2023/01/06 01:05:12;;;;;;;10.30;2.47;;;;;;;10.17;100.00;101439.66;5033080;28;20400;-54
2023/01/06 01:07:41;;;;;;;11.88;2.67;;;;;;;10.22;100.00;101441.06;5032176;28;20120;-55
2023/01/06 01:10:08;;;;;;;10.50;2.53;;;;;;;10.24;100.00;101433.81;5033444;28;20445;-54
2023/01/06 01:12:35;;;;;;;10.82;2.33;;;;;;;10.22;100.00;101439.25;5022574;28;20125;-54
2023/01/06 01:15:02;;;;;;;7.95;2.47;;;;;;;10.23;100.00;101426.84;5035404;28;20046;-54
2023/01/06 01:17:30;;;;;;;10.90;3.00;;;;;;;10.25;100.00;101424.91;5036844;28;20045;-54
2023/01/06 01:19:58;;;;;;;8.38;2.50;;;;;;;10.15;100.00;101438.97;5036297;28;20049;-54
2023/01/06 01:22:29;;;;;;;10.27;2.60;;;;;;;10.15;100.00;101440.75;5036513;28;20045;-54
2023/01/06 01:24:56;;;;;;;8.65;2.25;;;;;;;10.24;100.00;101441.78;5037258;28;20042;-54
2023/01/06 01:27:23;;;;;;;12.30;2.83;;;;;;;10.16;100.00;101434.50;5036096;28;20033;-55
2023/01/06 01:29:51;;;;;;;14.48;2.80;;;;;;;10.21;100.00;101432.28;5036977;28;20544;-54
2023/01/06 01:32:18;;;;;;;8.13;2.60;;;;;;;10.17;100.00;101438.84;5036791;28;20053;-55
2023/01/06 01:34:45;;;;;;;7.85;2.65;;;;;;;10.31;100.00;101443.78;5036679;28;20049;-54
2023/01/06 01:37:11;;;;;;;8.93;2.75;;;;;;;10.25;100.00;101441.63;5036676;28;20047;-53
2023/01/06 01:39:38;;;;;;;10.75;2.67;;;;;;;10.15;100.00;101438.09;5036395;28;20409;-54
2023/01/06 01:42:12;;;;;;;9.88;2.55;;;;;;;10.16;100.00;101442.44;5036687;28;20095;-54
2023/01/06 01:45:04;;;;;;;9.32;2.70;;;;;;;10.18;100.00;101445.81;5036806;28;20112;-55
2023/01/06 01:47:56;;;;;;;12.60;2.78;;;;;;;10.15;100.00;101446.06;5036207;28;20056;-55
2023/01/06 01:50:36;;;;;;;8.73;2.30;;;;;;;10.22;100.00;101441.91;5035071;28;20057;-54
2023/01/06 01:53:09;;;;;;;11.88;2.58;;;;;;;10.21;100.00;101431.44;5036057;28;20049;-55
2023/01/06 01:55:37;;;;;;;9.90;2.60;;;;;;;10.25;99.08;101422.25;5036327;28;20041;-54
2023/01/06 01:58:25;;;;;;;9.30;2.30;;;;;;;10.17;99.04;101422.94;5036325;28;20544;-55
2023/01/06 02:00:52;;;;;;;10.07;2.92;;;;;;;10.17;97.89;101423.75;5036367;28;20053;-54
2023/01/06 02:03:20;;;;;;;12.60;2.60;;;;;;;10.23;97.32;101426.84;5036074;28;20057;-54
2023/01/06 02:05:51;;;;;;;12.77;2.50;;;;;;;10.24;96.77;101432.03;5035346;28;20446;-54
2023/01/06 02:08:36;;;;;;;8.77;2.35;;;;;;;10.21;95.73;101423.50;5035165;28;20498;-54
2023/01/06 02:11:04;;;;;;;9.50;2.63;;;;;;;10.17;96.37;101422.94;5036467;28;20144;-54
2023/01/06 02:13:34;;;;;;;12.55;2.88;;;;;;;10.27;94.92;101420.28;5035858;28;20045;-53
2023/01/06 02:16:13;;;;;;;9.82;2.85;;;;;;;10.21;95.32;101423.50;5031346;28;20073;-55
2023/01/06 02:18:58;;;;;;;12.82;2.58;;;;;;;10.21;94.41;101416.38;5055235;28;20449;-55
2023/01/06 02:21:56;;;;;;;10.25;2.47;;;;;;;10.21;94.43;101415.53;5054965;28;20045;-54
2023/01/06 02:25:00;;;;;;;10.50;2.63;;;;;;;10.22;95.04;101412.72;5039257;28;20446;-59
2023/01/06 02:27:44;;;;;;;10.90;2.70;;;;;;;10.24;94.41;101410.81;5031529;28;20053;-60
2023/01/06 02:30:51;;;;;;;8.45;2.72;;;;;;;10.23;93.92;101411.78;5016205;28;20133;-59
2023/01/06 02:33:28;;;;;;;13.38;2.45;;;;;;;10.17;93.80;101399.06;5021814;28;20139;-55
2023/01/06 02:36:15;;;;;;;11.65;2.47;;;;;;;10.17;92.85;101409.69;5035445;28;20068;-55
2023/01/06 02:41:45;;;;;;;9.68;2.20;;;;;;;10.23;92.70;101398.50;5125725;27;20391;-55
2023/01/06 02:44:26;;;;;;;7.65;2.40;;;;;;;10.28;92.76;101391.00;5131705;27;20047;-55
2023/01/06 02:47:05;;;;;;;12.32;2.63;;;;;;;10.30;90.25;101396.16;5112413;27;20051;-54
2023/01/06 02:49:56;;;;;;;10.20;2.10;;;;;;;10.31;91.04;101393.38;5111078;28;20157;-55
2023/01/06 02:52:52;;;;;;;8.45;2.15;;;;;;;10.29;90.53;101389.19;5110489;28;20051;-55
2023/01/06 02:55:27;;;;;;;7.38;2.00;;;;;;;10.35;88.73;101380.69;5121687;28;20055;-58
2023/01/06 02:58:05;;;;;;;8.10;2.00;;;;;;;10.33;89.24;101377.34;5111196;28;20074;-54
2023/01/06 03:00:37;;;;;;;13.80;2.60;;;;;;;10.37;87.28;101376.13;5129570;28;20053;-54
2023/01/06 03:03:09;;;;;;;6.72;2.10;;;;;;;10.34;86.19;101366.59;5131584;27;20126;-55
2023/01/06 03:05:37;;;;;;;9.82;1.90;;;;;;;10.23;86.48;101372.00;5112039;27;20046;-55
2023/01/06 03:08:13;;;;;;;13.57;2.10;;;;;;;10.31;86.49;101366.88;5110172;28;20431;-53
2023/01/06 03:10:43;;;;;;;8.80;2.15;;;;;;;10.37;85.71;101370.81;5129511;28;20085;-55
2023/01/06 03:13:36;;;;;;;8.95;2.33;;;;;;;10.36;86.10;101369.13;5131520;27;20055;-54
2023/01/06 03:16:04;;;;;;;9.10;1.90;;;;;;;10.31;85.67;101377.47;5095218;28;20046;-55
2023/01/06 03:18:32;;;;;;;9.25;2.03;;;;;;;10.35;85.01;101367.44;5110837;28;20439;-54
2023/01/06 03:21:02;;;;;;;9.73;2.10;;;;;;;10.36;86.27;101371.78;5130522;28;20054;-53
2023/01/06 03:23:29;;;;;;;9.48;1.90;;;;;;;10.39;84.31;101366.19;5131199;27;20059;-55
2023/01/06 03:25:56;;;;;;;12.25;2.10;;;;;;;10.48;84.62;101369.84;5111169;27;20405;-55
2023/01/06 03:28:25;;;;;;;8.18;1.80;;;;;;;10.40;84.00;101365.22;5110015;28;20127;-55
2023/01/06 03:31:00;;;;;;;11.48;1.83;;;;;;;10.42;84.16;101365.06;5128909;28;20039;-55
2023/01/06 03:33:35;;;;;;;9.50;1.80;;;;;;;10.37;84.66;101370.81;5131021;27;20055;-54
2023/01/06 03:36:27;;;;;;;6.93;2.00;;;;;;;10.42;85.02;101357.94;5111567;27;20044;-55
2023/01/06 03:39:13;;;;;;;8.50;1.83;;;;;;;10.36;85.69;101364.66;5110394;28;20074;-54
2023/01/06 03:44:49;;;;;;;13.13;2.53;;;;;;;10.37;86.69;101353.06;5123681;27;20503;-55
2023/01/06 03:47:56;;;;;;;8.68;2.20;;;;;;;10.42;86.75;101349.16;5110260;28;20052;-54
2023/01/06 03:50:34;;;;;;;9.32;2.50;;;;;;;10.34;88.20;101344.56;5122052;28;20047;-55
2023/01/06 03:53:18;;;;;;;9.38;2.13;;;;;;;10.27;88.19;101328.31;5116740;28;20047;-55
2023/01/06 03:55:52;;;;;;;6.47;1.90;;;;;;;10.28;88.04;101337.97;5101283;28;20051;-55
2023/01/06 03:58:20;;;;;;;9.80;2.03;;;;;;;10.30;88.11;101335.19;5096380;28;20119;-55
2023/01/06 04:00:49;;;;;;;7.88;2.00;;;;;;;10.29;87.78;101339.63;5110453;28;20046;-55
2023/01/06 04:03:16;;;;;;;7.88;1.83;;;;;;;10.26;89.86;101334.63;5116725;28;20097;-55
2023/01/06 04:05:44;;;;;;;5.25;1.80;;;;;;;10.29;87.88;101329.00;5116574;28;20123;-54
2023/01/06 04:08:11;;;;;;;10.52;1.85;;;;;;;10.31;87.92;101320.97;5098330;28;20451;-55
2023/01/06 04:10:39;;;;;;;7.25;2.10;;;;;;;10.27;88.48;101323.00;5096205;28;20048;-55
2023/01/06 04:13:06;;;;;;;9.45;1.90;;;;;;;10.23;88.42;101328.75;5111680;28;20560;-55
2023/01/06 04:15:35;;;;;;;7.13;1.95;;;;;;;10.26;88.10;101333.75;5116179;28;20488;-55
2023/01/06 04:18:05;;;;;;;9.35;1.95;;;;;;;10.25;88.45;101326.78;5105876;28;20135;-55
2023/01/06 04:20:35;;;;;;;7.53;2.08;;;;;;;10.29;88.57;101326.38;5116419;27;20040;-55
2023/01/06 04:23:08;;;;;;;6.35;1.73;;;;;;;10.20;88.00;101321.88;5116400;28;20047;-55
2023/01/06 04:25:37;;;;;;;6.22;1.75;;;;;;;10.16;88.12;101321.31;5110079;28;20109;-55
2023/01/06 04:28:12;;;;;;;8.63;2.10;;;;;;;10.21;88.38;101325.41;5095584;28;20117;-55
2023/01/06 04:30:39;;;;;;;6.13;1.73;;;;;;;10.16;87.71;101307.22;5114827;28;20039;-55
2023/01/06 04:33:06;;;;;;;7.05;1.77;;;;;;;10.16;87.73;101308.06;5116212;27;20081;-54
2023/01/06 04:35:33;;;;;;;9.52;2.08;;;;;;;10.19;88.34;101309.63;5115914;28;20040;-55
2023/01/06 04:38:01;;;;;;;9.98;2.00;;;;;;;10.16;86.98;101316.03;5114932;28;20054;-55
2023/01/06 04:40:28;;;;;;;6.55;1.90;;;;;;;10.18;86.90;101316.72;5115442;28;20460;-56
2023/01/06 04:43:14;;;;;;;9.13;1.90;;;;;;;10.24;86.65;101323.31;5110105;28;20090;-55
2023/01/06 04:45:43;;;;;;;9.35;1.63;;;;;;;10.26;87.11;101307.22;5094488;28;20048;-55
2023/01/06 04:48:11;;;;;;;7.20;1.70;;;;;;;10.33;86.28;101308.41;5102090;28;20047;-55
2023/01/06 04:50:38;;;;;;;6.97;2.00;;;;;;;10.28;86.11;101313.25;5115544;28;20039;-55
2023/01/06 04:53:05;;;;;;;10.95;2.00;;;;;;;10.30;85.81;101304.19;5109344;28;20123;-55
2023/01/06 04:55:32;;;;;;;8.18;1.80;;;;;;;10.24;85.91;101298.59;5095465;28;20082;-55
2023/01/06 04:57:59;;;;;;;7.40;1.73;;;;;;;10.18;87.13;101295.50;5099109;28;20093;-55
2023/01/06 05:00:25;;;;;;;4.28;1.50;;;;;;;10.21;85.84;101296.22;5115710;27;20374;-54
2023/01/06 05:02:52;;;;;;;7.03;2.03;;;;;;;10.21;85.77;101307.66;5112133;28;20448;-54
2023/01/06 05:05:19;;;;;;;10.45;1.70;;;;;;;10.22;87.15;101301.38;5115410;28;20109;-55
2023/01/06 05:07:45;;;;;;;4.78;1.67;;;;;;;10.19;86.08;101299.84;5110074;28;20052;-55
2023/01/06 05:10:12;;;;;;;9.15;1.60;;;;;;;10.27;85.22;101296.50;5094812;28;20040;-54
2023/01/06 05:12:39;;;;;;;10.23;1.77;;;;;;;10.22;86.35;101297.88;5093328;28;20086;-54
2023/01/06 05:15:06;;;;;;;5.38;2.10;;;;;;;10.19;85.23;101289.25;5115186;28;20130;-55
2023/01/06 05:17:33;;;;;;;5.07;1.50;;;;;;;10.30;85.95;101290.94;5107970;28;20518;-54
2023/01/06 05:19:59;;;;;;;6.13;1.60;;;;;;;10.34;84.76;101288.88;5094880;28;20556;-55
2023/01/06 05:22:26;;;;;;;5.15;1.63;;;;;;;10.26;86.06;101278.94;5089410;28;20370;-55
2023/01/06 05:24:53;;;;;;;11.95;1.70;;;;;;;10.25;85.61;101281.72;5115051;28;20044;-55
2023/01/06 05:27:19;;;;;;;9.60;1.90;;;;;;;10.33;84.88;101282.72;5091672;28;20051;-55
2023/01/06 05:29:46;;;;;;;6.90;1.60;;;;;;;10.33;84.89;101282.72;5113634;28;20058;-55
2023/01/06 05:32:13;;;;;;;8.75;1.80;;;;;;;10.30;85.09;101276.84;5110316;28;20110;-55
2023/01/06 05:34:39;;;;;;;5.65;1.60;;;;;;;10.22;85.55;101280.16;5112342;28;20050;-55
2023/01/06 05:37:06;;;;;;;13.68;2.20;;;;;;;10.18;85.98;101292.03;5110493;28;20070;-54
2023/01/06 05:39:33;;;;;;;8.75;1.98;;;;;;;10.21;85.68;101293.59;5107997;28;20497;-54
2023/01/06 05:42:00;;;;;;;6.90;1.80;;;;;;;10.24;86.08;101291.50;5099488;28;20040;-54
2023/01/06 05:44:26;;;;;;;6.00;2.00;;;;;;;10.29;86.21;101296.38;5109457;28;20078;-55
2023/01/06 05:46:53;;;;;;;10.48;2.05;;;;;;;10.16;86.56;101292.16;5089047;28;20481;-54
2023/01/06 05:49:20;;;;;;;4.80;1.60;;;;;;;10.22;86.46;101289.94;5102185;28;20047;-55
2023/01/06 05:51:47;;;;;;;7.18;1.85;;;;;;;10.23;86.14;101288.97;5114773;28;20043;-55
2023/01/06 05:54:14;;;;;;;10.80;2.20;;;;;;;10.26;86.00;101292.19;5105165;28;20090;-55
2023/01/06 05:56:41;;;;;;;5.50;1.80;;;;;;;10.15;87.46;101295.81;5100289;28;20052;-54
2023/01/06 05:59:07;;;;;;;5.95;1.80;;;;;;;10.21;87.20;101291.75;5101914;28;20126;-54
2023/01/06 06:01:34;;;;;;;9.60;1.90;;;;;;;10.24;86.84;101299.44;5113996;28;20097;-54
2023/01/06 06:04:01;;;;;;;6.65;1.88;;;;;;;10.22;86.27;101289.94;5103995;28;20044;-54
2023/01/06 06:06:29;;;;;;;4.90;1.60;;;;;;;10.25;86.42;101287.84;5108526;28;20064;-55
2023/01/06 06:08:57;;;;;;;5.75;1.65;;;;;;;10.25;86.61;101292.31;5101998;28;20048;-55
2023/01/06 06:11:24;;;;;;;10.63;1.85;;;;;;;10.16;86.93;101288.69;5108875;28;20063;-54
2023/01/06 06:13:53;;;;;;;6.15;1.60;;;;;;;10.23;86.49;101279.19;5100476;28;20035;-53
2023/01/06 06:16:23;;;;;;;5.13;1.65;;;;;;;10.23;86.69;101276.53;5113969;28;20043;-55
2023/01/06 06:18:53;;;;;;;8.32;2.45;;;;;;;10.21;86.40;101278.50;5099594;28;20044;-54
2023/01/06 06:21:22;;;;;;;3.05;1.50;;;;;;;10.24;86.28;101274.72;5112309;28;20093;-54
2023/01/06 06:23:51;;;;;;;7.57;1.67;;;;;;;10.19;86.73;101268.03;5100262;28;20052;-54
2023/01/06 06:26:18;;;;;;;3.30;1.40;;;;;;;10.23;87.10;101278.38;5103003;28;20074;-54
2023/01/06 06:28:45;;;;;;;6.47;1.77;;;;;;;10.17;86.68;101271.81;5086949;28;20411;-54
2023/01/06 06:31:16;;;;;;;5.30;1.50;;;;;;;10.11;86.88;101265.22;5113602;28;20058;-54
2023/01/06 06:33:43;;;;;;;5.75;1.58;;;;;;;10.12;87.13;101261.59;5100649;28;20036;-54
2023/01/06 06:36:14;;;;;;;7.20;1.70;;;;;;;10.14;86.37;101272.06;5113825;28;20051;-54
2023/01/06 06:38:44;;;;;;;4.13;1.50;;;;;;;10.13;86.77;101267.72;5103698;28;20042;-55
2023/01/06 06:41:11;;;;;;;6.55;1.42;;;;;;;10.16;86.91;101267.47;5113412;28;20044;-54
2023/01/06 06:43:38;;;;;;;5.68;1.60;;;;;;;10.21;86.53;101267.91;5086081;28;20039;-54
2023/01/06 06:46:05;;;;;;;4.10;1.60;;;;;;;10.15;86.04;101265.78;5093401;28;20486;-54
2023/01/06 06:48:32;;;;;;;8.77;2.50;;;;;;;10.24;86.13;101264.13;5094582;28;20048;-53
2023/01/06 06:51:01;;;;;;;6.30;1.80;;;;;;;10.13;86.54;101257.13;5112734;28;20051;-54
2023/01/06 06:53:28;;;;;;;4.18;1.42;;;;;;;10.24;85.74;101267.63;5083785;28;20098;-55
2023/01/06 06:55:55;;;;;;;6.05;1.60;;;;;;;10.18;86.21;101263.69;5106057;28;20409;-54
2023/01/06 06:58:22;;;;;;;4.47;1.50;;;;;;;10.19;85.95;101272.50;5090663;28;20048;-55
2023/01/06 07:00:48;;;;;;;7.18;1.67;;;;;;;10.23;86.35;101275.72;5112799;28;20039;-54
2023/01/06 07:03:16;;;;;;;6.85;1.55;;;;;;;10.22;86.38;101272.19;5096580;28;20508;-54
2023/01/06 07:05:45;;;;;;;7.80;1.60;;;;;;;10.24;86.22;101261.47;5111368;28;20047;-54
2023/01/06 07:08:12;;;;;;;4.97;1.50;;;;;;;10.21;86.61;101261.75;5086103;28;20135;-54
2023/01/06 07:10:39;;;;;;;3.03;1.48;;;;;;;10.12;86.53;101266.06;5093757;28;20055;-54
2023/01/06 07:13:06;;;;;;;5.43;1.63;;;;;;;10.21;86.58;101252.00;5092123;28;20646;-53
2023/01/06 07:15:33;;;;;;;5.35;1.73;;;;;;;10.13;86.52;101251.81;5108861;28;20043;-54
2023/01/06 07:18:01;;;;;;;7.10;1.70;;;;;;;10.17;86.88;101254.06;5086707;28;20052;-55
2023/01/06 07:20:29;;;;;;;6.50;1.88;;;;;;;10.15;87.57;101253.38;5074127;28;20047;-54
2023/01/06 07:22:55;;;;;;;5.13;1.58;;;;;;;10.11;87.33;101251.13;5085018;28;20044;-54
2023/01/06 07:25:22;;;;;;;5.00;1.38;;;;;;;10.07;87.24;101255.88;5093062;28;20082;-54
2023/01/06 07:27:54;;;;;;;5.82;1.52;;;;;;;10.12;87.18;101258.94;5084935;28;20048;-54
2023/01/06 07:30:22;;;;;;;5.75;1.50;;;;;;;10.08;87.68;101259.38;5108880;28;20048;-54
2023/01/06 07:32:50;;;;;;;4.80;1.70;;;;;;;10.08;87.78;101259.38;5104560;27;20044;-55
2023/01/06 07:35:17;;;;;;;8.18;2.00;;;;;;;10.14;87.79;101254.34;5111762;28;20044;-55
2023/01/06 07:37:44;;;;;;;4.03;1.50;;;;;;;10.15;87.62;101260.47;5106556;28;20051;-54
2023/01/06 07:40:12;;;;;;;3.60;1.65;;;;;;;10.16;87.02;101276.25;5103917;28;20062;-54
2023/01/06 07:42:39;;;;;;;3.75;1.60;;;;;;;10.14;87.33;101266.78;5093548;28;20394;-54
2023/01/06 07:45:06;;;;;;;4.35;1.60;;;;;;;10.16;87.27;101272.78;5100999;28;20051;-54
2023/01/06 07:47:33;;;;;;;6.50;1.58;;;;;;;10.12;87.24;101269.56;5116839;28;20146;-54
2023/01/06 07:50:00;;;;;;;4.20;1.50;;;;;;;10.14;87.35;101272.06;5104735;28;20058;-53
2023/01/06 07:52:27;;;;;;;3.65;1.50;;;;;;;10.14;87.43;101275.56;5095450;28;20040;-54
2023/01/06 07:54:58;;;;;;;4.88;1.60;;;;;;;10.23;86.86;101268.59;5105699;28;20044;-54
2023/01/06 07:57:26;;;;;;;5.18;1.60;;;;;;;10.23;86.97;101276.53;5105721;28;20085;-54
2023/01/06 07:59:52;;;;;;;8.82;1.90;;;;;;;10.23;87.21;101275.72;5110157;28;20047;-54
2023/01/06 08:02:19;;;;;;;4.03;1.40;;;;;;;10.26;86.87;101286.03;5107168;28;20036;-54
2023/01/06 08:04:46;;;;;;;4.68;1.40;;;;;;;10.24;86.87;101283.53;5094812;28;20051;-55
2023/01/06 08:07:15;;;;;;;4.28;1.40;;;;;;;10.32;86.85;101278.38;5101500;28;20036;-54
2023/01/06 08:09:42;;;;;;;4.65;1.48;;;;;;;10.33;87.05;101279.22;5116551;28;20116;-54
2023/01/06 08:12:08;;;;;;;8.38;1.60;;;;;;;10.31;86.97;101279.34;5096982;27;20048;-54
2023/01/06 08:14:35;;;;;;;5.30;1.70;;;;;;;10.30;87.19;101276.84;5095970;28;20136;-54
2023/01/06 08:17:02;;;;;;;3.78;1.50;;;;;;;10.29;87.87;101280.44;5099892;28;20043;-55
2023/01/06 08:19:28;;;;;;;4.95;1.90;;;;;;;10.40;87.31;101284.81;5094429;28;20043;-54
2023/01/06 08:21:55;;;;;;;4.00;1.42;;;;;;;10.42;87.27;101296.13;5088637;28;20039;-54
2023/01/06 08:24:22;;;;;;;4.95;1.60;;;;;;;10.44;87.66;101283.56;5092670;28;20047;-54
2023/01/06 08:26:48;;;;;;;2.97;1.40;;;;;;;10.43;87.99;101295.16;5091752;28;20055;-54
2023/01/06 08:29:15;;;;;;;3.58;1.50;;;;;;;10.44;87.76;101292.38;5094587;28;20050;-54
2023/01/06 08:31:42;;;;;;;8.18;1.70;;;;;;;10.45;88.06;101303.81;5095944;28;20039;-54
2023/01/06 08:34:10;;;;;;;3.75;1.40;;;;;;;10.39;88.21;101302.56;5095827;28;20047;-62
2023/01/06 08:36:37;;;;;;;3.30;1.60;;;;;;;10.40;88.54;101319.28;5095378;28;20063;-61
2023/01/06 08:39:04;;;;;;;5.40;1.40;;;;;;;10.42;88.10;101301.41;5095081;28;20048;-62
2023/01/06 08:41:31;;;;;;;4.97;1.30;;;;;;;10.47;88.40;101315.09;5089563;28;20393;-57
2023/01/06 08:43:58;;;;;;;5.32;2.00;;;;;;;10.54;88.07;101314.41;5110672;28;20044;-61
2023/01/06 08:46:25;;;;;;;6.18;1.48;;;;;;;10.46;88.39;101310.75;5098768;28;20070;-54
2023/01/06 08:48:54;;;;;;;5.07;1.42;;;;;;;10.44;88.57;101315.38;5097689;28;20048;-54
2023/01/06 08:51:22;;;;;;;4.63;1.50;;;;;;;10.53;88.28;101319.84;5083857;28;20044;-54
2023/01/06 08:53:50;;;;;;;7.40;2.13;;;;;;;10.50;88.58;101323.63;5102623;28;20044;-52
2023/01/06 08:56:20;;;;;;;4.15;1.50;;;;;;;10.54;88.67;101329.50;5093731;28;20054;-54
2023/01/06 08:58:52;;;;;;;2.88;1.38;;;;;;;10.54;89.13;101326.84;5106317;28;20065;-55
2023/01/06 09:01:23;;;;;;;3.35;1.40;;;;;;;10.54;89.64;101329.50;5095790;28;20427;-54
2023/01/06 09:03:50;;;;;;;5.45;1.40;;;;;;;10.52;89.96;101328.81;5086686;28;20131;-55
2023/01/06 09:06:19;;;;;;;2.83;1.20;;;;;;;10.65;89.92;101339.13;5097404;28;20052;-54
2023/01/06 09:08:48;;;;;;;5.40;1.33;;;;;;;10.60;90.53;101336.06;5096662;28;20079;-54
2023/01/06 09:11:16;;;;;;;3.55;1.60;;;;;;;10.46;91.36;101339.94;5109500;28;20041;-54
2023/01/06 09:13:43;;;;;;;3.13;1.40;;;;;;;10.48;92.94;101344.16;5077662;28;20405;-53
2023/01/06 09:16:11;;;;;;;5.55;1.55;;;;;;;10.42;93.97;101336.72;5099325;28;20501;-54
2023/01/06 09:18:38;;;;;;;3.35;1.40;;;;;;;10.32;94.25;101350.00;5094696;28;20071;-54
2023/01/06 09:21:05;;;;;;;5.93;1.45;;;;;;;10.32;94.63;101354.47;5086959;28;20040;-52
2023/01/06 09:23:31;;;;;;;6.43;1.63;;;;;;;10.25;95.76;101366.56;5073439;28;20047;-54
2023/01/06 09:25:58;;;;;;;2.60;1.48;;;;;;;10.28;97.20;101366.31;5092153;28;20527;-54
2023/01/06 09:28:25;;;;;;;2.70;1.30;;;;;;;10.17;98.34;101362.78;5094576;28;20075;-53
2023/01/06 09:30:52;;;;;;;4.60;1.33;;;;;;;10.19;99.57;101370.59;5084997;28;20071;-54
2023/01/06 09:33:18;;;;;;;2.38;1.20;;;;;;;10.27;99.18;101367.25;5074117;28;20048;-54
2023/01/06 09:35:45;;;;;;;11.50;1.67;;;;;;;10.12;99.62;101365.00;5082086;28;20048;-54
2023/01/06 09:38:13;;;;;;;5.40;1.58;;;;;;;10.15;99.28;101367.38;5074076;28;20098;-53
2023/01/06 09:41:19;;;;;;;3.33;1.40;;;;;;;10.13;100.00;101368.47;5104746;28;20112;-54
2023/01/06 09:46:44;;;;;;;4.55;1.50;;;;;;;10.13;100.00;101366.69;5151817;27;20533;-54
2023/01/06 09:51:59;;;;;;;3.65;1.65;;;;;;;10.19;100.00;101381.22;5103070;27;20720;-55
2023/01/06 09:54:33;;;;;;;3.47;1.50;;;;;;;10.46;99.40;101377.94;5096587;28;20489;-53
2023/01/06 09:57:06;;;;;;;4.93;1.40;;;;;;;10.65;99.23;101374.44;5101096;28;20043;-56
2023/01/06 09:59:44;;;;;;;5.68;1.90;;;;;;;10.61;99.48;101378.38;5100093;28;20050;-53
2023/01/06 10:02:21;;;;;;;3.60;1.50;;;;;;;10.38;100.00;101375.94;5106422;28;20052;-54
2023/01/06 10:04:48;;;;;;;6.10;1.52;;;;;;;10.36;100.00;101369.94;5079078;28;20047;-52
2023/01/06 10:07:34;;;;;;;3.95;1.50;;;;;;;10.28;100.00;101372.44;5070238;28;20071;-56
2023/01/06 10:10:20;;;;;;;3.95;1.50;;;;;;;10.26;100.00;101371.72;5103586;28;20068;-55
2023/01/06 10:12:58;;;;;;;4.45;1.38;;;;;;;10.16;100.00;101378.81;5089849;28;20067;-53
2023/01/06 10:15:53;;;;;;;3.10;1.60;;;;;;;9.98;100.00;101389.22;5071960;28;20094;-54
2023/01/06 10:21:21;;;;;;;5.78;2.22;;;;;;;10.02;100.00;101389.78;5039904;28;20427;-55
2023/01/06 10:24:06;;;;;;;2.78;1.55;;;;;;;9.96;100.00;101394.66;5032652;28;20462;-54
2023/01/06 10:26:43;;;;;;;6.05;1.60;;;;;;;9.94;100.00;101396.59;5039932;28;20052;-55
2023/01/06 10:29:15;;;;;;;3.20;1.60;;;;;;;10.01;100.00;101396.91;5004998;28;20042;-55
2023/01/06 10:31:44;;;;;;;4.25;1.70;;;;;;;10.05;100.00;101400.13;5020852;28;20168;-55
2023/01/06 10:34:18;;;;;;;3.20;1.60;;;;;;;9.99;100.00;101398.88;5027196;28;20045;-54
2023/01/06 10:36:51;;;;;;;2.42;1.50;;;;;;;10.10;100.00;101393.47;5036735;28;20049;-55
2023/01/06 10:39:21;;;;;;;3.50;1.65;;;;;;;10.04;100.00;101398.44;5021923;28;20056;-56
2023/01/06 10:45:03;;;;;;;3.03;1.63;;;;;;;9.92;100.00;101385.31;5025087;28;20133;-55
2023/01/06 10:47:31;;;;;;;7.45;2.30;;;;;;;10.11;100.00;101387.16;5027299;28;20136;-55
2023/01/06 10:49:59;;;;;;;6.15;2.00;;;;;;;10.10;100.00;101389.97;5034099;28;20045;-54
2023/01/06 10:52:26;;;;;;;4.38;1.67;;;;;;;10.00;100.00;101392.56;5032540;28;20115;-55
2023/01/06 10:54:58;;;;;;;4.20;1.52;;;;;;;9.98;100.00;101392.72;5017283;28;20854;-55
2023/01/06 10:57:30;;;;;;;3.40;1.75;;;;;;;10.01;100.00;101390.78;5021561;28;20064;-55
2023/01/06 11:00:21;;;;;;;6.28;2.05;;;;;;;10.06;100.00;101388.53;5018507;28;20049;-55
2023/01/06 11:02:52;;;;;;;8.03;2.30;;;;;;;10.10;100.00;101390.81;5016894;28;20052;-54
2023/01/06 11:05:23;;;;;;;4.60;2.00;;;;;;;10.24;100.00;101383.44;5029410;28;20519;-55
2023/01/06 11:08:12;;;;;;;3.72;1.70;;;;;;;10.46;100.00;101390.34;5014391;28;20443;-54
2023/01/06 11:10:49;;;;;;;11.65;1.90;;;;;;;10.68;100.00;101397.25;5025699;28;20048;-55
2023/01/06 11:13:25;;;;;;;3.83;1.80;;;;;;;10.97;100.00;101389.28;5011134;28;20045;-55
2023/01/06 11:15:54;;;;;;;5.25;1.90;;;;;;;12.39;94.53;101386.56;5006886;28;20080;-55
2023/01/06 11:18:27;;;;;;;18.85;9.35;;;;;;;11.95;95.30;101387.22;5025782;28;20100;-53
2023/01/06 11:21:05;;;;;;;6.13;2.30;;;;;;;11.45;96.38;101376.88;5027030;28;20056;-52
2023/01/06 11:23:33;;;;;;;4.78;1.80;;;;;;;11.32;97.69;101379.84;5012758;28;20050;-54
2023/01/06 11:26:04;;;;;;;7.00;2.05;;;;;;;11.13;98.39;101372.75;5033073;28;20057;-53
2023/01/06 11:28:31;;;;;;;7.68;2.30;;;;;;;11.09;98.92;101371.34;5017808;28;20045;-54
2023/01/06 11:31:04;;;;;;;7.30;2.70;;;;;;;11.18;97.69;101373.16;5012253;28;20186;-53
2023/01/06 11:33:35;;;;;;;4.97;2.00;;;;;;;11.94;95.35;101380.22;5007655;28;20487;-53
2023/01/06 11:36:09;;;;;;;5.67;2.30;;;;;;;11.88;91.98;101373.66;4999657;28;20086;-52
2023/01/06 11:38:42;;;;;;;5.43;2.10;;;;;;;11.83;91.65;101378.56;5006265;28;20042;-52
2023/01/06 11:41:10;;;;;;;7.55;2.20;;;;;;;12.33;89.22;101373.84;5001296;28;20133;-52
2023/01/06 11:43:44;;;;;;;5.10;2.10;;;;;;;13.09;85.68;101369.88;5005643;28;20073;-53
2023/01/06 11:46:13;;;;;;;7.63;2.00;;;;;;;13.86;80.54;101372.69;5005025;28;20054;-53
2023/01/06 11:48:50;;;;;;;4.95;2.05;;;;;;;14.30;77.23;101360.00;5021997;28;20052;-52
2023/01/06 11:51:43;;;;;;;6.43;2.08;;;;;;;14.15;76.97;101370.47;4997149;28;20034;-52
2023/01/06 11:54:37;;;;;;;5.43;1.80;;;;;;;13.25;81.14;101370.00;5011313;28;20054;-53
2023/01/06 11:57:27;;;;;;;3.65;1.88;;;;;;;13.36;80.98;101368.94;4998716;28;20125;-53